createdAt,value
2023-01-11T00:00:00.502Z,0.60
2023-01-11T00:01:03.124Z,0.45
2023-01-11T00:02:05.012Z,0.35
2023-01-11T00:03:07.154Z,0.38
2023-01-11T00:04:09.163Z,0.50
2023-01-11T00:05:12.001Z,1.17
2023-01-11T00:06:14.091Z,0.50
2023-01-11T00:07:15.967Z,1.33
2023-01-11T00:08:19.283Z,0.65
2023-01-11T00:09:21.126Z,0.75
2023-01-11T00:10:22.976Z,0.40
2023-01-11T00:11:24.892Z,1.00
2023-01-11T00:12:26.670Z,0.65
2023-01-11T00:13:29.453Z,0.50
2023-01-11T00:14:31.269Z,0.45
2023-01-11T00:15:35.329Z,0.50
2023-01-11T00:16:37.671Z,0.80
2023-01-11T00:17:40.224Z,0.70
2023-01-11T00:18:42.176Z,0.30
2023-01-11T00:19:44.284Z,0.52
2023-01-11T00:20:46.123Z,0.68
2023-01-11T00:21:49.645Z,0.40
2023-01-11T00:22:51.846Z,0.95
2023-01-11T00:23:53.713Z,0.40
2023-01-11T00:24:55.580Z,0.50
2023-01-11T00:25:57.481Z,0.45
2023-01-11T00:26:59.348Z,0.38
2023-01-11T00:28:01.308Z,0.50
2023-01-11T00:29:03.097Z,0.40
2023-01-11T00:30:05.411Z,0.30
2023-01-11T00:31:07.268Z,0.98
2023-01-11T00:32:09.097Z,0.80
2023-01-11T00:33:11.323Z,0.40
2023-01-11T00:34:13.263Z,0.40
2023-01-11T00:35:15.408Z,1.30
2023-01-11T00:36:17.174Z,0.40
2023-01-11T00:37:18.951Z,0.30
2023-01-11T00:38:40.905Z,0.45
2023-01-11T00:39:42.712Z,0.30
2023-01-11T00:40:44.472Z,0.77
2023-01-11T00:42:04.657Z,0.55
2023-01-11T00:43:24.906Z,0.22
2023-01-11T00:44:45.116Z,0.38
2023-01-11T00:46:19.134Z,0.40
2023-01-11T00:47:39.180Z,0.47
2023-01-11T00:48:40.931Z,0.38
2023-01-11T00:49:43.798Z,0.40
2023-01-11T00:50:45.702Z,0.30
2023-01-11T00:51:47.500Z,0.30
2023-01-11T00:52:49.281Z,0.43
2023-01-11T00:53:52.459Z,0.30
2023-01-11T00:54:54.433Z,0.25
2023-01-11T00:55:56.207Z,0.20
2023-01-11T00:56:58.015Z,0.52
2023-01-11T00:58:00.894Z,0.30
2023-01-11T00:59:03.597Z,1.05
2023-01-11T01:00:06.611Z,0.20
2023-01-11T01:01:08.457Z,0.30
2023-01-11T01:02:12.172Z,0.30
2023-01-11T01:03:14.032Z,0.20
2023-01-11T01:04:15.815Z,0.20
2023-01-11T01:05:18.627Z,0.30
2023-01-11T01:06:20.553Z,0.30
2023-01-11T01:07:22.449Z,0.30
2023-01-11T01:08:24.308Z,0.20
2023-01-11T01:09:26.375Z,0.22
2023-01-11T01:10:28.193Z,0.30
2023-01-11T01:11:30.069Z,0.20
2023-01-11T01:12:50.361Z,0.30
2023-01-11T01:14:10.574Z,0.30
2023-01-11T01:15:12.430Z,0.57
2023-01-11T01:16:14.709Z,0.20
2023-01-11T01:17:16.505Z,0.22
2023-01-11T01:18:18.953Z,0.20
2023-01-11T01:19:22.470Z,0.15
2023-01-11T01:20:24.907Z,0.25
2023-01-11T01:21:27.297Z,0.55
2023-01-11T01:22:29.055Z,0.70
2023-01-11T01:23:30.828Z,0.20
2023-01-11T01:24:34.018Z,0.13
2023-01-11T01:25:37.541Z,0.90
2023-01-11T01:26:39.323Z,1.00
2023-01-11T01:27:41.326Z,0.50
2023-01-11T01:28:43.281Z,0.60
2023-01-11T01:29:45.125Z,0.20
2023-01-11T01:30:51.250Z,0.20
2023-01-11T01:31:53.194Z,0.38
2023-01-11T01:32:55.009Z,0.38
2023-01-11T01:33:57.346Z,0.32
2023-01-11T01:34:59.240Z,0.30
2023-01-11T01:36:04.936Z,0.22
2023-01-11T01:37:08.389Z,0.47
2023-01-11T01:38:10.259Z,0.45
2023-01-11T01:39:13.126Z,0.47
2023-01-11T01:40:14.919Z,0.80
2023-01-11T01:41:17.045Z,1.25
2023-01-11T01:42:20.344Z,0.47
2023-01-11T01:43:22.465Z,0.25
2023-01-11T01:44:52.116Z,0.68
2023-01-11T01:45:56.086Z,0.60
2023-01-11T01:46:58.057Z,0.60
2023-01-11T01:48:02.162Z,0.35
2023-01-11T01:49:09.268Z,0.68
2023-01-11T01:50:17.708Z,0.45
2023-01-11T01:51:25.164Z,1.75
2023-01-11T01:52:29.357Z,0.30
2023-01-11T01:53:37.937Z,0.80
2023-01-11T01:54:44.896Z,0.30
2023-01-11T01:55:52.624Z,0.50
2023-01-11T01:57:02.393Z,0.30
2023-01-11T01:58:12.019Z,0.60
2023-01-11T01:59:17.144Z,0.80
2023-01-11T02:00:19.443Z,0.60
2023-01-11T02:01:39.811Z,0.38
2023-01-11T02:02:44.175Z,0.43
2023-01-11T02:03:47.193Z,0.50
2023-01-11T02:04:49.552Z,0.40
2023-01-11T02:05:52.749Z,0.98
2023-01-11T02:07:14.709Z,0.20
2023-01-11T02:08:38.172Z,0.40
2023-01-11T02:10:04.847Z,0.63
2023-01-11T02:11:27.969Z,0.20
2023-01-11T02:12:34.936Z,0.30
2023-01-11T02:13:46.188Z,0.20
2023-01-11T02:14:49.629Z,0.30
2023-01-11T02:16:07.746Z,0.73
2023-01-11T02:17:10.680Z,0.20
2023-01-11T02:18:14.198Z,0.63
2023-01-11T02:19:43.465Z,0.30
2023-01-11T02:20:57.550Z,0.38
2023-01-11T02:22:17.317Z,0.20
2023-01-11T02:23:38.204Z,0.20
2023-01-11T02:24:58.740Z,0.10
2023-01-11T02:26:06.049Z,0.60
2023-01-11T02:27:43.315Z,0.38
2023-01-11T02:29:03.003Z,0.30
2023-01-11T02:30:13.902Z,0.40
2023-01-11T02:31:28.972Z,0.30
2023-01-11T02:32:44.608Z,0.30
2023-01-11T02:34:15.893Z,0.20
2023-01-11T02:35:32.536Z,0.32
2023-01-11T02:36:46.957Z,0.20
2023-01-11T02:38:10.761Z,0.60
2023-01-11T02:39:15.388Z,0.55
2023-01-11T02:40:35.068Z,1.30
2023-01-11T02:42:09.598Z,0.30
2023-01-11T02:43:40.508Z,0.30
2023-01-11T02:45:07.109Z,0.40
2023-01-11T02:46:12.039Z,0.60
2023-01-11T02:47:21.082Z,0.68
2023-01-11T02:48:47.349Z,0.30
2023-01-11T02:50:29.741Z,0.17
2023-01-11T02:51:38.383Z,0.77
2023-01-11T02:52:46.613Z,0.40
2023-01-11T02:53:59.497Z,0.20
2023-01-11T02:55:04.271Z,0.30
2023-01-11T02:56:10.969Z,0.73
2023-01-11T02:57:15.649Z,0.32
2023-01-11T02:58:20.065Z,0.25
2023-01-11T02:59:29.155Z,0.20
2023-01-11T03:00:31.488Z,0.32
2023-01-11T03:01:33.306Z,0.50
2023-01-11T03:02:35.178Z,0.40
2023-01-11T03:03:37.108Z,0.75
2023-01-11T03:04:39.837Z,0.50
2023-01-11T03:05:50.589Z,0.40
2023-01-11T03:07:31.633Z,0.60
2023-01-11T03:08:37.928Z,0.50
2023-01-11T03:09:39.749Z,0.52
2023-01-11T03:10:47.224Z,0.40
2023-01-11T03:12:33.767Z,0.50
2023-01-11T03:13:45.203Z,0.70
2023-01-11T03:15:32.196Z,0.65
2023-01-11T03:16:51.808Z,0.65
2023-01-11T03:18:15.757Z,0.73
2023-01-11T03:19:43.762Z,0.50
2023-01-11T03:20:52.945Z,0.52
2023-01-11T03:22:22.428Z,0.52
2023-01-11T03:23:39.605Z,0.70
2023-01-11T03:25:10.459Z,0.57
2023-01-11T03:26:24.464Z,0.68
2023-01-11T03:27:44.381Z,0.20
2023-01-11T03:29:16.741Z,0.30
2023-01-11T03:30:29.661Z,0.88
2023-01-11T03:31:39.438Z,0.20
2023-01-11T03:32:48.961Z,0.43
2023-01-11T03:34:00.566Z,0.30
2023-01-11T03:35:02.541Z,0.43
2023-01-11T03:36:13.376Z,0.73
2023-01-11T03:37:22.842Z,0.35
2023-01-11T03:38:40.824Z,0.20
2023-01-11T03:40:03.967Z,0.47
2023-01-11T03:41:11.850Z,0.30
2023-01-11T03:42:18.161Z,0.38
2023-01-11T03:43:23.963Z,0.30
2023-01-11T03:44:29.135Z,0.40
2023-01-11T03:45:35.303Z,0.70
2023-01-11T03:46:43.242Z,0.43
2023-01-11T03:47:45.616Z,0.73
2023-01-11T03:49:15.888Z,0.50
2023-01-11T03:50:18.714Z,1.20
2023-01-11T03:51:29.677Z,0.50
2023-01-11T03:52:38.839Z,0.30
2023-01-11T03:53:45.442Z,0.30
2023-01-11T03:54:47.611Z,0.40
2023-01-11T03:55:55.731Z,0.57
2023-01-11T03:57:14.322Z,0.65
2023-01-11T03:58:16.233Z,0.40
2023-01-11T03:59:18.357Z,0.50
2023-01-11T04:00:21.699Z,1.30
2023-01-11T04:01:26.002Z,0.50
2023-01-11T04:02:34.860Z,0.40
2023-01-11T04:03:36.757Z,1.63
2023-01-11T04:04:38.528Z,0.80
2023-01-11T04:05:43.860Z,1.00
2023-01-11T04:06:45.923Z,1.42
2023-01-11T04:07:47.720Z,1.25
2023-01-11T04:08:49.598Z,1.25
2023-01-11T04:09:51.430Z,1.30
2023-01-11T04:10:53.272Z,0.95
2023-01-11T04:11:55.235Z,1.52
2023-01-11T04:12:57.217Z,1.60
2023-01-11T04:13:59.009Z,1.25
2023-01-11T04:15:03.193Z,1.15
2023-01-11T04:16:05.211Z,1.30
2023-01-11T04:17:06.990Z,1.30
2023-01-11T04:18:08.831Z,1.67
2023-01-11T04:19:10.616Z,1.67
2023-01-11T04:20:12.967Z,1.00
2023-01-11T04:21:14.804Z,1.30
2023-01-11T04:22:16.596Z,1.10
2023-01-11T04:23:18.592Z,1.10
2023-01-11T04:24:21.613Z,1.13
2023-01-11T04:25:23.385Z,1.00
2023-01-11T04:26:25.224Z,1.33
2023-01-11T04:27:27.062Z,1.33
2023-01-11T04:28:29.212Z,1.50
2023-01-11T04:29:31.005Z,1.15
2023-01-11T04:30:32.832Z,1.00
2023-01-11T04:31:34.704Z,1.10
2023-01-11T04:32:36.563Z,0.80
2023-01-11T04:33:38.503Z,1.02
2023-01-11T04:34:40.288Z,0.93
2023-01-11T04:35:42.343Z,0.77
2023-01-11T04:36:44.163Z,0.88
2023-01-11T04:37:45.931Z,1.50
2023-01-11T04:38:47.918Z,0.93
2023-01-11T04:39:49.713Z,0.77
2023-01-11T04:41:11.508Z,1.30
2023-01-11T04:42:19.454Z,1.23
2023-01-11T04:43:21.316Z,0.80
2023-01-11T04:44:23.225Z,0.65
2023-01-11T04:45:25.071Z,0.50
2023-01-11T04:46:26.980Z,0.90
2023-01-11T04:47:28.831Z,0.65
2023-01-11T04:48:30.613Z,0.65
2023-01-11T04:49:32.427Z,1.38
2023-01-11T04:50:34.309Z,0.77
2023-01-11T04:51:36.133Z,1.00
2023-01-11T04:52:38.198Z,1.02
2023-01-11T04:53:40.172Z,1.05
2023-01-11T04:54:42.481Z,1.40
2023-01-11T04:55:44.325Z,1.00
2023-01-11T04:56:46.300Z,1.08
2023-01-11T04:57:48.188Z,0.80
2023-01-11T04:58:49.979Z,1.42
2023-01-11T04:59:51.837Z,1.08
2023-01-11T05:00:53.666Z,0.90
2023-01-11T05:01:55.654Z,0.80
2023-01-11T05:02:59.259Z,1.00
2023-01-11T05:04:01.057Z,1.40
2023-01-11T05:05:04.546Z,1.33
2023-01-11T05:06:07.005Z,1.42
2023-01-11T05:07:09.102Z,1.25
2023-01-11T05:08:10.919Z,1.25
2023-01-11T05:09:18.344Z,0.80
2023-01-11T05:10:21.188Z,0.73
2023-01-11T05:11:23.024Z,1.13
2023-01-11T05:12:25.205Z,0.95
2023-01-11T05:13:42.709Z,2.17
2023-01-11T05:14:44.543Z,1.08
2023-01-11T05:15:46.425Z,0.70
2023-01-11T05:16:48.327Z,0.75
2023-01-11T05:17:50.117Z,1.17
2023-01-11T05:18:57.760Z,0.90
2023-01-11T05:19:59.545Z,0.80
2023-01-11T05:21:02.037Z,1.27
2023-01-11T05:22:03.916Z,0.90
2023-01-11T05:23:05.672Z,1.00
2023-01-11T05:24:11.978Z,0.82
2023-01-11T05:25:13.755Z,1.10
2023-01-11T05:26:18.388Z,1.20
2023-01-11T05:27:20.252Z,0.70
2023-01-11T05:28:22.079Z,1.00
2023-01-11T05:29:23.947Z,1.70
2023-01-11T05:30:25.741Z,0.57
2023-01-11T05:31:28.709Z,1.20
2023-01-11T05:32:30.613Z,0.90
2023-01-11T05:33:32.708Z,0.98
2023-01-11T05:34:34.559Z,1.13
2023-01-11T05:35:36.350Z,0.98
2023-01-11T05:36:38.144Z,0.98
2023-01-11T05:37:39.981Z,1.75
2023-01-11T05:38:41.910Z,1.25
2023-01-11T05:39:43.704Z,0.70
2023-01-11T05:40:45.525Z,1.02
2023-01-11T05:41:47.356Z,1.65
2023-01-11T05:42:49.112Z,1.17
2023-01-11T05:44:10.389Z,1.73
2023-01-11T05:45:32.120Z,1.20
2023-01-11T05:46:35.569Z,1.40
2023-01-11T05:47:37.361Z,0.90
2023-01-11T05:48:39.107Z,1.30
2023-01-11T05:49:40.922Z,0.52
2023-01-11T05:50:43.055Z,1.25
2023-01-11T05:51:44.907Z,1.50
2023-01-11T05:52:46.803Z,0.80
2023-01-11T05:53:48.847Z,1.27
2023-01-11T05:54:50.611Z,0.93
2023-01-11T05:55:57.002Z,0.75
2023-01-11T05:56:58.868Z,0.70
2023-01-11T05:58:00.763Z,1.15
2023-01-11T05:59:04.094Z,1.45
2023-01-11T06:00:06.576Z,1.55
2023-01-11T06:01:08.684Z,0.90
2023-01-11T06:02:10.545Z,1.00
2023-01-11T06:03:12.483Z,0.50
2023-01-11T06:04:14.643Z,1.15
2023-01-11T06:05:16.570Z,1.30
2023-01-11T06:06:19.839Z,0.73
2023-01-11T06:07:25.008Z,1.33
2023-01-11T06:08:26.946Z,1.63
2023-01-11T06:09:28.715Z,1.15
2023-01-11T06:10:30.493Z,2.00
2023-01-11T06:11:32.402Z,0.98
2023-01-11T06:12:34.262Z,1.50
2023-01-11T06:13:36.171Z,1.75
2023-01-11T06:14:38.379Z,2.10
2023-01-11T06:15:40.674Z,1.65
2023-01-11T06:16:42.522Z,0.85
2023-01-11T06:17:44.376Z,1.20
2023-01-11T06:18:48.345Z,1.30
2023-01-11T06:19:50.108Z,1.50
2023-01-11T06:20:53.361Z,1.63
2023-01-11T06:21:55.196Z,1.77
2023-01-11T06:22:57.096Z,1.65
2023-01-11T06:23:58.905Z,1.58
2023-01-11T06:25:00.672Z,1.42
2023-01-11T06:26:04.122Z,0.93
2023-01-11T06:27:05.901Z,2.13
2023-01-11T06:28:07.703Z,1.98
2023-01-11T06:29:09.617Z,3.15
2023-01-11T06:30:12.088Z,1.58
2023-01-11T06:31:16.979Z,1.75
2023-01-11T06:32:19.334Z,1.08
2023-01-11T06:33:22.722Z,1.98
2023-01-11T06:34:24.610Z,1.90
2023-01-11T06:35:26.393Z,1.23
2023-01-11T06:36:29.756Z,1.30
2023-01-11T06:37:31.766Z,1.92
2023-01-11T06:38:34.027Z,1.80
2023-01-11T06:39:35.847Z,1.20
2023-01-11T06:40:39.713Z,2.58
2023-01-11T06:41:41.591Z,1.88
2023-01-11T06:42:43.431Z,3.35
2023-01-11T06:43:46.516Z,1.85
2023-01-11T06:44:48.316Z,2.45
2023-01-11T06:45:50.414Z,3.60
2023-01-11T06:46:52.277Z,2.95
2023-01-11T06:47:54.286Z,3.92
2023-01-11T06:48:56.046Z,2.70
2023-01-11T06:49:58.017Z,3.00
2023-01-11T06:51:00.337Z,2.75
2023-01-11T06:52:02.146Z,2.15
2023-01-11T06:53:04.101Z,2.15
2023-01-11T06:54:05.928Z,1.83
2023-01-11T06:55:08.250Z,3.70
2023-01-11T06:56:15.762Z,1.58
2023-01-11T06:57:17.573Z,3.20
2023-01-11T06:58:19.875Z,2.65
2023-01-11T06:59:21.688Z,2.63
2023-01-11T07:00:24.787Z,1.95
2023-01-11T07:01:27.518Z,1.85
2023-01-11T07:02:29.344Z,1.65
2023-01-11T07:03:31.131Z,1.92
2023-01-11T07:04:33.079Z,2.15
2023-01-11T07:05:35.866Z,3.78
2023-01-11T07:06:37.735Z,1.88
2023-01-11T07:07:41.056Z,2.55
2023-01-11T07:08:42.940Z,2.47
2023-01-11T07:09:44.767Z,3.80
2023-01-11T07:10:46.903Z,1.42
2023-01-11T07:11:48.792Z,2.55
2023-01-11T07:12:51.841Z,1.13
2023-01-11T07:13:53.619Z,1.75
2023-01-11T07:14:55.448Z,2.22
2023-01-11T07:15:57.937Z,1.83
2023-01-11T07:17:00.183Z,2.15
2023-01-11T07:18:02.346Z,1.88
2023-01-11T07:19:04.169Z,2.50
2023-01-11T07:20:07.200Z,2.17
2023-01-11T07:21:09.039Z,1.67
2023-01-11T07:22:10.811Z,2.40
2023-01-11T07:23:12.992Z,2.40
2023-01-11T07:24:14.828Z,2.00
2023-01-11T07:25:16.917Z,2.75
2023-01-11T07:26:18.789Z,1.27
2023-01-11T07:27:20.832Z,2.55
2023-01-11T07:28:22.737Z,2.65
2023-01-11T07:29:24.515Z,2.58
2023-01-11T07:30:28.387Z,1.67
2023-01-11T07:31:30.332Z,2.03
2023-01-11T07:32:32.136Z,2.45
2023-01-11T07:33:34.074Z,2.10
2023-01-11T07:34:35.887Z,2.25
2023-01-11T07:35:37.757Z,2.20
2023-01-11T07:36:40.656Z,1.30
2023-01-11T07:37:42.722Z,1.35
2023-01-11T07:38:44.492Z,1.20
2023-01-11T07:39:46.760Z,1.50
2023-01-11T07:40:49.559Z,2.90
2023-01-11T07:42:09.940Z,1.45
2023-01-11T07:43:16.521Z,2.00
2023-01-11T07:44:18.310Z,1.55
2023-01-11T07:45:20.135Z,3.10
2023-01-11T07:46:22.136Z,2.00
2023-01-11T07:47:23.948Z,2.55
2023-01-11T07:48:27.184Z,2.17
2023-01-11T07:49:29.307Z,3.10
2023-01-11T07:50:31.534Z,1.90
2023-01-11T07:51:33.333Z,3.30
2023-01-11T07:52:35.165Z,1.77
2023-01-11T07:53:36.963Z,2.20
2023-01-11T07:54:38.736Z,1.10
2023-01-11T07:55:40.992Z,2.15
2023-01-11T07:56:42.809Z,2.97
2023-01-11T07:57:44.627Z,4.43
2023-01-11T07:58:46.428Z,1.52
2023-01-11T07:59:48.262Z,1.48
2023-01-11T08:00:50.065Z,1.80
2023-01-11T08:01:52.012Z,2.75
2023-01-11T08:02:54.013Z,1.85
2023-01-11T08:03:56.323Z,2.50
2023-01-11T08:04:58.505Z,2.15
2023-01-11T08:06:00.435Z,3.05
2023-01-11T08:07:02.231Z,1.33
2023-01-11T08:08:04.966Z,2.22
2023-01-11T08:09:08.912Z,1.45
2023-01-11T08:10:11.505Z,1.45
2023-01-11T08:11:31.901Z,1.90
2023-01-11T08:12:52.371Z,1.98
2023-01-11T08:14:12.610Z,2.00
2023-01-11T08:15:14.442Z,2.00
2023-01-11T08:16:16.366Z,1.63
2023-01-11T08:17:18.229Z,2.42
2023-01-11T08:18:20.040Z,2.42
2023-01-11T08:19:21.999Z,2.30
2023-01-11T08:20:24.193Z,1.55
2023-01-11T08:21:25.997Z,2.05
2023-01-11T08:22:27.835Z,2.05
2023-01-11T08:23:31.239Z,1.88
2023-01-11T08:24:34.728Z,2.33
2023-01-11T08:25:37.323Z,2.83
2023-01-11T08:26:39.144Z,0.98
2023-01-11T08:27:40.946Z,1.63
2023-01-11T08:28:46.823Z,2.95
2023-01-11T08:29:48.702Z,1.85
2023-01-11T08:30:50.575Z,2.08
2023-01-11T08:31:52.459Z,1.10
2023-01-11T08:32:54.237Z,1.23
2023-01-11T08:33:56.040Z,1.73
2023-01-11T08:36:05.182Z,2.35
2023-01-11T08:37:07.125Z,2.58
2023-01-11T08:38:08.973Z,1.75
2023-01-11T08:39:11.359Z,1.23
2023-01-11T08:40:13.680Z,3.08
2023-01-11T08:41:15.639Z,1.70
2023-01-11T08:42:17.647Z,1.83
2023-01-11T08:43:19.618Z,1.63
2023-01-11T08:44:33.266Z,2.38
2023-01-11T08:45:36.064Z,2.50
2023-01-11T08:46:38.159Z,1.80
2023-01-11T08:47:40.005Z,1.55
2023-01-11T08:48:42.628Z,1.30
2023-01-11T08:49:44.564Z,2.28
2023-01-11T08:50:46.360Z,1.17
2023-01-11T08:51:48.160Z,1.90
2023-01-11T08:52:51.649Z,1.55
2023-01-11T08:53:53.605Z,1.45
2023-01-11T08:54:56.031Z,0.88
2023-01-11T08:55:57.931Z,1.33
2023-01-11T08:56:59.800Z,2.38
2023-01-11T08:58:01.669Z,2.15
2023-01-11T08:59:05.242Z,1.50
2023-01-11T09:00:08.441Z,1.40
2023-01-11T09:01:10.218Z,1.55
2023-01-11T09:02:12.907Z,1.50
2023-01-11T09:03:15.272Z,1.75
2023-01-11T09:04:24.868Z,1.50
2023-01-11T09:05:27.363Z,1.40
2023-01-11T09:06:29.404Z,2.13
2023-01-11T09:07:31.167Z,2.67
2023-01-11T09:08:33.004Z,1.73
2023-01-11T09:09:34.815Z,1.48
2023-01-11T09:10:36.755Z,1.33
2023-01-11T09:11:57.429Z,1.08
2023-01-11T09:12:59.463Z,1.02
2023-01-11T09:14:01.283Z,1.20
2023-01-11T09:15:06.244Z,1.75
2023-01-11T09:16:08.225Z,1.52
2023-01-11T09:17:10.305Z,1.30
2023-01-11T09:18:15.445Z,1.08
2023-01-11T09:19:17.285Z,0.75
2023-01-11T09:20:20.030Z,1.35
2023-01-11T09:21:22.112Z,1.08
2023-01-11T09:22:23.991Z,0.60
2023-01-11T09:23:25.806Z,0.80
2023-01-11T09:24:27.784Z,1.25
2023-01-11T09:25:29.704Z,0.60
2023-01-11T09:26:31.484Z,0.80
2023-01-11T09:27:33.368Z,0.85
2023-01-11T09:28:35.209Z,1.45
2023-01-11T09:29:37.712Z,1.55
2023-01-11T09:30:39.727Z,0.85
2023-01-11T09:31:41.583Z,0.52
2023-01-11T09:32:43.518Z,1.00
2023-01-11T09:33:45.414Z,1.00
2023-01-11T09:34:49.668Z,0.40
2023-01-11T09:35:52.230Z,0.47
2023-01-11T09:36:56.151Z,0.52
2023-01-11T09:37:59.177Z,0.77
2023-01-11T09:39:02.264Z,0.80
2023-01-11T09:40:04.473Z,0.80
2023-01-11T09:41:21.606Z,0.40
2023-01-11T09:42:24.501Z,0.73
2023-01-11T09:43:28.692Z,0.65
2023-01-11T09:44:32.782Z,1.02
2023-01-11T09:45:35.729Z,0.70
2023-01-11T09:46:43.093Z,2.00
2023-01-11T09:48:11.733Z,0.68
2023-01-11T09:49:20.232Z,1.00
2023-01-11T09:50:26.678Z,0.40
2023-01-11T09:51:35.148Z,0.85
2023-01-11T09:52:41.244Z,1.42
2023-01-11T09:53:49.517Z,0.80
2023-01-11T09:54:52.463Z,1.52
2023-01-11T09:55:58.134Z,0.68
2023-01-11T09:57:18.570Z,0.68
2023-01-11T09:58:46.640Z,1.20
2023-01-11T09:59:58.377Z,1.05
2023-01-11T10:01:11.041Z,1.40
2023-01-11T10:02:40.693Z,1.63
2023-01-11T10:04:11.901Z,1.27
2023-01-11T10:05:22.431Z,1.35
2023-01-11T10:06:45.537Z,2.10
2023-01-11T10:18:29.664Z,0.77
2023-01-11T10:18:31.859Z,1.38
2023-01-11T10:18:32.240Z,1.73
2023-01-11T10:19:56.854Z,1.63
2023-01-11T10:21:11.184Z,2.00
2023-01-11T10:22:32.880Z,1.15
2023-01-11T10:23:58.552Z,1.83
2023-01-11T10:25:11.581Z,1.13
2023-01-11T10:26:27.314Z,1.90
2023-01-11T10:27:40.413Z,2.10
2023-01-11T10:29:22.389Z,1.08
2023-01-11T10:31:11.292Z,1.08
2023-01-11T10:33:06.583Z,1.55
2023-01-11T10:34:36.710Z,2.63
2023-01-11T10:36:08.504Z,1.58
2023-01-11T10:37:26.137Z,1.15
2023-01-11T10:38:53.902Z,1.50
2023-01-11T10:40:28.229Z,1.38
2023-01-11T10:41:43.155Z,1.52
2023-01-11T10:42:53.188Z,2.65
2023-01-11T10:44:05.150Z,1.20
2023-01-11T10:45:18.129Z,1.42
2023-01-11T10:46:24.097Z,1.15
2023-01-11T10:47:31.803Z,1.30
2023-01-11T10:48:41.309Z,0.80
2023-01-11T10:49:59.938Z,1.80
2023-01-11T10:51:20.000Z,1.25
2023-01-11T10:52:41.482Z,2.10
2023-01-11T10:53:47.870Z,1.48
2023-01-11T10:54:54.822Z,2.45
2023-01-11T10:56:05.801Z,1.80
2023-01-11T10:57:15.923Z,1.23
2023-01-11T10:58:38.916Z,0.90
2023-01-11T10:59:43.825Z,2.97
2023-01-11T11:01:08.706Z,0.95
2023-01-11T11:02:35.580Z,1.00
2023-01-11T11:03:43.345Z,1.20
2023-01-11T11:05:11.005Z,0.93
2023-01-11T11:06:50.371Z,1.25
2023-01-11T11:08:05.571Z,1.83
2023-01-11T11:09:27.373Z,1.95
2023-01-11T11:10:38.083Z,1.42
2023-01-11T11:11:58.023Z,0.88
2023-01-11T11:13:29.524Z,1.65
2023-01-11T11:14:43.757Z,0.90
2023-01-11T11:16:15.688Z,0.80
2023-01-11T11:17:31.333Z,1.15
2023-01-11T11:18:33.087Z,0.82
2023-01-11T11:19:34.947Z,0.95
2023-01-11T11:20:36.821Z,1.58
2023-01-11T11:21:42.213Z,0.85
2023-01-11T11:22:45.182Z,1.75
2023-01-11T11:23:54.007Z,1.33
2023-01-11T11:25:01.307Z,0.50
2023-01-11T11:26:06.615Z,0.95
2023-01-11T11:27:15.554Z,0.88
2023-01-11T11:28:17.315Z,1.02
2023-01-11T11:29:29.237Z,0.80
2023-01-11T11:30:34.984Z,0.90
2023-01-11T11:31:42.877Z,1.50
2023-01-11T11:33:03.734Z,1.00
2023-01-11T11:34:16.163Z,0.70
2023-01-11T11:35:39.900Z,0.80
2023-01-11T11:36:47.075Z,1.20
2023-01-11T11:37:49.020Z,1.85
2023-01-11T11:39:11.373Z,1.00
2023-01-11T11:40:30.216Z,1.92
2023-01-11T11:41:47.533Z,0.70
2023-01-11T11:42:49.323Z,0.70
2023-01-11T11:43:51.109Z,0.70
2023-01-11T11:45:14.940Z,0.77
2023-01-11T11:46:20.143Z,1.17
2023-01-11T11:47:22.278Z,1.30
2023-01-11T11:48:26.485Z,1.35
2023-01-11T11:49:30.820Z,0.73
2023-01-11T11:50:45.954Z,0.77
2023-01-11T11:51:48.514Z,0.38
2023-01-11T11:53:08.268Z,4.22
2023-01-11T11:54:28.277Z,1.10
2023-01-11T11:55:34.921Z,1.05
2023-01-11T11:56:41.806Z,1.23
2023-01-11T11:57:44.507Z,1.17
2023-01-11T11:58:47.226Z,1.15
2023-01-11T11:59:54.308Z,0.80
2023-01-11T12:00:56.224Z,0.85
2023-01-11T12:02:02.311Z,0.77
2023-01-11T12:03:16.452Z,1.10
2023-01-11T12:04:22.432Z,1.02
2023-01-11T12:05:24.768Z,1.05
2023-01-11T12:06:30.516Z,1.85
2023-01-11T12:07:49.833Z,1.35
2023-01-11T12:09:00.881Z,1.13
2023-01-11T12:10:09.415Z,1.52
2023-01-11T12:11:20.276Z,1.48
2023-01-11T12:12:25.921Z,1.08
2023-01-11T12:13:37.804Z,0.73
2023-01-11T12:14:39.642Z,0.50
2023-01-11T12:15:55.886Z,0.95
2023-01-11T12:16:58.967Z,1.08
2023-01-11T12:18:22.575Z,0.50
2023-01-11T12:19:45.295Z,0.68
2023-01-11T12:20:47.345Z,1.15
2023-01-11T12:21:50.752Z,0.73
2023-01-11T12:23:14.706Z,1.05
2023-01-11T12:24:19.423Z,0.90
2023-01-11T12:25:25.019Z,0.88
2023-01-11T12:26:35.060Z,1.25
2023-01-11T12:27:37.103Z,0.38
2023-01-11T12:29:08.174Z,0.98
2023-01-11T12:30:29.407Z,0.52
2023-01-11T12:31:43.310Z,1.08
2023-01-11T12:33:08.030Z,0.73
2023-01-11T12:34:22.199Z,0.28
2023-01-11T12:35:53.180Z,0.60
2023-01-11T12:37:16.670Z,0.60
2023-01-11T12:38:39.964Z,0.50
2023-01-11T12:39:59.190Z,0.82
2023-01-11T12:41:19.284Z,0.80
2023-01-11T12:42:32.470Z,0.80
2023-01-11T12:44:04.233Z,0.30
2023-01-11T12:45:27.096Z,0.80
2023-01-11T12:46:54.136Z,1.52
2023-01-11T12:48:04.961Z,0.95
2023-01-11T12:49:18.613Z,0.28
2023-01-11T12:50:50.974Z,0.43
2023-01-11T12:52:28.998Z,0.85
2023-01-11T12:53:40.538Z,0.40
2023-01-11T12:54:54.072Z,0.60
2023-01-11T12:56:19.059Z,0.25
2023-01-11T12:57:39.316Z,0.65
2023-01-11T12:59:04.945Z,0.43
2023-01-11T13:00:16.346Z,0.50
2023-01-11T13:01:37.167Z,0.75
2023-01-11T13:02:39.021Z,0.50
2023-01-11T13:03:55.939Z,0.63
2023-01-11T13:05:23.830Z,0.25
2023-01-11T13:06:36.464Z,1.67
2023-01-11T13:07:58.096Z,0.28
2023-01-11T13:09:12.013Z,0.90
2023-01-11T13:10:30.076Z,0.32
2023-01-11T13:11:56.361Z,0.70
2023-01-11T13:13:06.491Z,0.52
2023-01-11T13:14:35.959Z,0.82
2023-01-11T13:16:04.073Z,0.40
2023-01-11T13:17:25.187Z,0.43
2023-01-11T13:18:44.925Z,0.47
2023-01-11T13:19:46.672Z,0.55
2023-01-11T13:21:16.460Z,0.50
2023-01-11T13:22:24.601Z,0.20
2023-01-11T13:23:43.525Z,0.75
2023-01-11T13:24:49.439Z,0.60
2023-01-11T13:25:53.112Z,1.05
2023-01-11T13:27:00.968Z,0.75
2023-01-11T13:28:23.872Z,0.57
2023-01-11T13:29:31.332Z,0.52
2023-01-11T13:30:33.369Z,0.22
2023-01-11T13:31:36.605Z,0.57
2023-01-11T13:32:42.978Z,0.30
2023-01-11T13:33:52.928Z,0.70
2023-01-11T13:34:59.854Z,1.15
2023-01-11T13:36:12.296Z,0.47
2023-01-11T13:37:39.735Z,0.57
2023-01-11T13:39:21.384Z,0.73
2023-01-11T13:40:44.667Z,0.63
2023-01-11T13:41:52.416Z,0.50
2023-01-11T13:43:04.960Z,0.50
2023-01-11T13:44:12.339Z,0.63
2023-01-11T13:45:37.114Z,0.73
2023-01-11T13:47:02.417Z,0.20
2023-01-11T13:48:33.879Z,0.40
2023-01-11T13:49:51.865Z,1.02
2023-01-11T13:51:01.572Z,0.60
2023-01-11T13:52:35.573Z,0.50
2023-01-11T13:53:53.653Z,1.20
2023-01-11T13:55:04.227Z,0.30
2023-01-11T13:56:17.539Z,0.45
2023-01-11T13:57:38.653Z,0.65
2023-01-11T13:58:56.132Z,0.43
2023-01-11T14:00:04.901Z,0.30
2023-01-11T14:01:21.942Z,0.50
2023-01-11T14:02:38.066Z,0.50
2023-01-11T14:03:52.529Z,0.40
2023-01-11T14:05:05.599Z,0.95
2023-01-11T14:06:32.180Z,0.50
2023-01-11T14:08:07.191Z,1.45
2023-01-11T14:09:18.078Z,0.50
2023-01-11T14:10:28.905Z,0.30
2023-01-11T14:11:42.824Z,0.17
2023-01-11T14:12:57.849Z,0.32
2023-01-11T14:14:15.612Z,0.43
2023-01-11T14:15:41.097Z,0.68
2023-01-11T14:17:01.390Z,0.40
2023-01-11T14:18:11.577Z,0.43
2023-01-11T14:19:25.230Z,1.15
2023-01-11T14:20:37.575Z,0.65
2023-01-11T14:21:45.145Z,0.75
2023-01-11T14:23:28.483Z,0.63
2023-01-11T14:24:35.236Z,0.50
2023-01-11T14:25:42.148Z,1.05
2023-01-11T14:27:05.911Z,0.40
2023-01-11T14:28:26.065Z,1.02
2023-01-11T14:29:59.180Z,0.70
2023-01-11T14:31:19.459Z,0.47
2023-01-11T14:32:52.150Z,0.88
2023-01-11T14:34:18.143Z,1.40
2023-01-11T14:35:22.944Z,0.85
2023-01-11T14:36:44.261Z,0.22
2023-01-11T14:38:14.041Z,0.80
2023-01-11T14:39:21.535Z,0.98
2023-01-11T14:40:42.051Z,0.55
2023-01-11T14:42:16.292Z,0.80
2023-01-11T14:43:43.157Z,0.70
2023-01-11T14:45:08.284Z,0.45
2023-01-11T14:46:47.406Z,1.30
2023-01-11T14:48:21.204Z,0.75
2023-01-11T14:49:44.226Z,1.02
2023-01-11T14:51:05.807Z,0.77
2023-01-11T14:52:16.272Z,0.80
2023-01-11T14:53:24.120Z,0.88
2023-01-11T14:54:32.510Z,1.08
2023-01-11T14:55:46.486Z,0.43
2023-01-11T14:56:53.456Z,0.43
2023-01-11T14:57:55.184Z,0.93
2023-01-11T14:59:21.954Z,0.70
2023-01-11T15:00:23.783Z,1.95
2023-01-11T15:01:25.620Z,0.65
2023-01-11T15:02:30.489Z,0.60
2023-01-11T15:03:41.667Z,0.90
2023-01-11T15:04:52.366Z,1.27
2023-01-11T15:06:18.879Z,0.60
2023-01-11T15:07:29.476Z,1.10
2023-01-11T15:08:43.205Z,0.70
2023-01-11T15:09:47.729Z,0.75
2023-01-11T15:10:58.437Z,0.93
2023-01-11T15:12:12.841Z,0.95
2023-01-11T15:13:20.298Z,1.15
2023-01-11T15:14:30.408Z,1.13
2023-01-11T15:15:52.836Z,1.02
2023-01-11T15:17:18.547Z,0.93
2023-01-11T15:18:24.448Z,0.68
2023-01-11T15:19:29.166Z,1.20
2023-01-11T15:20:33.670Z,0.95
2023-01-11T15:21:46.560Z,0.60
2023-01-11T15:22:57.261Z,1.05